Huvudsida
METAR-TAF:

METAR-TAF

Flygplatser :

Payam International Airport

Karaj, Iran

latitud: 35-46-34N, longitud: 050-49-36E, höjd: 1271 m

Aktuellt väderrapport

Denna rapport gjordes för 1 timme och 7 minuter sedan, klockan 06:00 UTC
Vind 4 kt från nord/nordväst
Temperatur 7°C
Fuktighet 76%
Tryck 1021 hPa
Sikt: 3000 m
Få moln på en höjd av 3500 ft
Spridda moln på en höjd av 20000 ft
torrdis

METAR: OIIP 220600Z 33004KT 3000 HZ FEW035 SCT200 07/03 Q1020 A3015

Tid: 10:37 (07:07 UTC)


TAF: saknas

Aktuella väderrapporter och prognoser från 4000 flygplatser (METAR- och TAF-rapporter).

De tillgängliga stationerna syns som gula och röda prickar på kartan.

För musen över prickarna för att se namnen på stationerna.

Klicka sedan för att få väderrapporter och prognoser.

För att ändra kartan: Klicka på de gröna knapparna med ett svart kors på för att zooma in; den gröna knappen med ett streck på för att zooma ut; eller på de gröna pilarna för angränsande kartor.


METAR-TAF: